<?xml version="1.0" encoding="UTF-8" standalone="no" ?>
<gpx xmlns="http://www.topografix.com/GPX/1/1" xmlns:xsi="http://www.w3.org/2001/XMLSchema-instance" xsi:schemaLocation="http://www.topografix.com/GPX/1/1 http://www.topografix.com/GPX/1/1/gpx.xsd" version="1.1" creator="VisuGPX - https://www.visugpx.com">
  <metadata>
    <name>Marche sportive Péage Île de Ré - l?Houmeau</name>
  </metadata>
  <trk>
    <name><![CDATA[Marche sportive]]></name>
    <trkseg>
      <trkpt lat="46.17675" lon="-1.21791">
        <ele>9.5</ele>
        <time>2022-03-14T12:44:00+01:00</time>
      </trkpt>
      <trkpt lat="46.17676" lon="-1.21779">
        <ele>9.700195</ele>
        <time>2022-03-14T12:44:04+01:00</time>
      </trkpt>
      <trkpt lat="46.17678" lon="-1.21774">
        <ele>9.900391</ele>
        <time>2022-03-14T12:44:07+01:00</time>
      </trkpt>
      <trkpt lat="46.17681" lon="-1.21772">
        <ele>10.100586</ele>
        <time>2022-03-14T12:44:10+01:00</time>
      </trkpt>
      <trkpt lat="46.17683" lon="-1.21772">
        <ele>10.100586</ele>
        <time>2022-03-14T12:44:12+01:00</time>
      </trkpt>
      <trkpt lat="46.17686" lon="-1.21775">
        <ele>10.100586</ele>
        <time>2022-03-14T12:44:15+01:00</time>
      </trkpt>
      <trkpt lat="46.17693" lon="-1.21811">
        <ele>9.700195</ele>
        <time>2022-03-14T12:44:32+01:00</time>
      </trkpt>
      <trkpt lat="46.17705" lon="-1.21849">
        <ele>8.700195</ele>
        <time>2022-03-14T12:44:56+01:00</time>
      </trkpt>
      <trkpt lat="46.17712" lon="-1.21862">
        <ele>8.600586</ele>
        <time>2022-03-14T12:45:05+01:00</time>
      </trkpt>
      <trkpt lat="46.17717" lon="-1.21876">
        <ele>8.200195</ele>
        <time>2022-03-14T12:45:12+01:00</time>
      </trkpt>
      <trkpt lat="46.17723" lon="-1.21883">
        <ele>8</ele>
        <time>2022-03-14T12:45:18+01:00</time>
      </trkpt>
      <trkpt lat="46.17749" lon="-1.2188">
        <ele>7.2001953</ele>
        <time>2022-03-14T12:45:38+01:00</time>
      </trkpt>
      <trkpt lat="46.1776" lon="-1.21875">
        <ele>7.600586</ele>
        <time>2022-03-14T12:45:46+01:00</time>
      </trkpt>
      <trkpt lat="46.17775" lon="-1.21865">
        <ele>7.7998047</ele>
        <time>2022-03-14T12:45:58+01:00</time>
      </trkpt>
      <trkpt lat="46.1779" lon="-1.21851">
        <ele>7.7998047</ele>
        <time>2022-03-14T12:46:11+01:00</time>
      </trkpt>
      <trkpt lat="46.178" lon="-1.21846">
        <ele>7.7001953</ele>
        <time>2022-03-14T12:46:18+01:00</time>
      </trkpt>
      <trkpt lat="46.17837" lon="-1.21835">
        <ele>8</ele>
        <time>2022-03-14T12:46:44+01:00</time>
      </trkpt>
      <trkpt lat="46.17851" lon="-1.21833">
        <ele>7.7001953</ele>
        <time>2022-03-14T12:46:54+01:00</time>
      </trkpt>
      <trkpt lat="46.1791" lon="-1.2182">
        <ele>7.7998047</ele>
        <time>2022-03-14T12:47:35+01:00</time>
      </trkpt>
      <trkpt lat="46.17944" lon="-1.21799">
        <ele>10</ele>
        <time>2022-03-14T12:48:01+01:00</time>
      </trkpt>
      <trkpt lat="46.17977" lon="-1.21782">
        <ele>11.200195</ele>
        <time>2022-03-14T12:48:25+01:00</time>
      </trkpt>
      <trkpt lat="46.18001" lon="-1.21763">
        <ele>11.100586</ele>
        <time>2022-03-14T12:48:45+01:00</time>
      </trkpt>
      <trkpt lat="46.1801" lon="-1.21753">
        <ele>11.299805</ele>
        <time>2022-03-14T12:48:53+01:00</time>
      </trkpt>
      <trkpt lat="46.18037" lon="-1.21707">
        <ele>14.799805</ele>
        <time>2022-03-14T12:49:23+01:00</time>
      </trkpt>
      <trkpt lat="46.18048" lon="-1.21692">
        <ele>14.5</ele>
        <time>2022-03-14T12:49:34+01:00</time>
      </trkpt>
      <trkpt lat="46.18077" lon="-1.21673">
        <ele>13.5</ele>
        <time>2022-03-14T12:49:55+01:00</time>
      </trkpt>
      <trkpt lat="46.18111" lon="-1.21644">
        <ele>12.100586</ele>
        <time>2022-03-14T12:50:22+01:00</time>
      </trkpt>
      <trkpt lat="46.18138" lon="-1.21625">
        <ele>11.200195</ele>
        <time>2022-03-14T12:50:42+01:00</time>
      </trkpt>
      <trkpt lat="46.18143" lon="-1.21623">
        <ele>11.100586</ele>
        <time>2022-03-14T12:50:46+01:00</time>
      </trkpt>
      <trkpt lat="46.18158" lon="-1.2162">
        <ele>10.700195</ele>
        <time>2022-03-14T12:50:57+01:00</time>
      </trkpt>
      <trkpt lat="46.18167" lon="-1.21615">
        <ele>10.400391</ele>
        <time>2022-03-14T12:51:04+01:00</time>
      </trkpt>
      <trkpt lat="46.18182" lon="-1.21605">
        <ele>10.400391</ele>
        <time>2022-03-14T12:51:15+01:00</time>
      </trkpt>
      <trkpt lat="46.18206" lon="-1.21584">
        <ele>10.600586</ele>
        <time>2022-03-14T12:51:35+01:00</time>
      </trkpt>
      <trkpt lat="46.18241" lon="-1.21533">
        <ele>10.200195</ele>
        <time>2022-03-14T12:52:10+01:00</time>
      </trkpt>
      <trkpt lat="46.18263" lon="-1.21495">
        <ele>8.600586</ele>
        <time>2022-03-14T12:52:33+01:00</time>
      </trkpt>
      <trkpt lat="46.1828" lon="-1.21475">
        <ele>6.7998047</ele>
        <time>2022-03-14T12:52:48+01:00</time>
      </trkpt>
      <trkpt lat="46.18283" lon="-1.21468">
        <ele>6.7998047</ele>
        <time>2022-03-14T12:52:52+01:00</time>
      </trkpt>
      <trkpt lat="46.18304" lon="-1.21391">
        <ele>7.2001953</ele>
        <time>2022-03-14T12:53:30+01:00</time>
      </trkpt>
      <trkpt lat="46.18323" lon="-1.21365">
        <ele>5.2001953</ele>
        <time>2022-03-14T12:53:47+01:00</time>
      </trkpt>
      <trkpt lat="46.18335" lon="-1.21334">
        <ele>4.2001953</ele>
        <time>2022-03-14T12:54:03+01:00</time>
      </trkpt>
      <trkpt lat="46.18337" lon="-1.21325">
        <ele>4.4003906</ele>
        <time>2022-03-14T12:54:08+01:00</time>
      </trkpt>
      <trkpt lat="46.18337" lon="-1.21311">
        <ele>4.600586</ele>
        <time>2022-03-14T12:54:15+01:00</time>
      </trkpt>
      <trkpt lat="46.18343" lon="-1.21265">
        <ele>4.7998047</ele>
        <time>2022-03-14T12:54:37+01:00</time>
      </trkpt>
      <trkpt lat="46.18353" lon="-1.2116">
        <ele>7</ele>
        <time>2022-03-14T12:55:28+01:00</time>
      </trkpt>
      <trkpt lat="46.18365" lon="-1.21065">
        <ele>5</ele>
        <time>2022-03-14T12:56:11+01:00</time>
      </trkpt>
      <trkpt lat="46.1837" lon="-1.2104">
        <ele>5</ele>
        <time>2022-03-14T12:56:23+01:00</time>
      </trkpt>
      <trkpt lat="46.18381" lon="-1.21012">
        <ele>4.4003906</ele>
        <time>2022-03-14T12:56:38+01:00</time>
      </trkpt>
      <trkpt lat="46.18386" lon="-1.20993">
        <ele>4.7998047</ele>
        <time>2022-03-14T12:56:48+01:00</time>
      </trkpt>
      <trkpt lat="46.18392" lon="-1.20982">
        <ele>4.100586</ele>
        <time>2022-03-14T12:56:55+01:00</time>
      </trkpt>
      <trkpt lat="46.18395" lon="-1.20968">
        <ele>3.5</ele>
        <time>2022-03-14T12:57:03+01:00</time>
      </trkpt>
      <trkpt lat="46.18403" lon="-1.20948">
        <ele>2.7001953</ele>
        <time>2022-03-14T12:57:14+01:00</time>
      </trkpt>
      <trkpt lat="46.18403" lon="-1.20944">
        <ele>2.7001953</ele>
        <time>2022-03-14T12:57:16+01:00</time>
      </trkpt>
      <trkpt lat="46.18392" lon="-1.20917">
        <ele>5.100586</ele>
        <time>2022-03-14T12:57:34+01:00</time>
      </trkpt>
      <trkpt lat="46.18393" lon="-1.20926">
        <ele>4.100586</ele>
        <time>2022-03-14T12:57:38+01:00</time>
      </trkpt>
      <trkpt lat="46.184" lon="-1.20938">
        <ele>2.9003906</ele>
        <time>2022-03-14T12:57:45+01:00</time>
      </trkpt>
      <trkpt lat="46.184" lon="-1.20942">
        <ele>2.9003906</ele>
        <time>2022-03-14T12:57:53+01:00</time>
      </trkpt>
      <trkpt lat="46.18397" lon="-1.20944">
        <ele>3.7001953</ele>
        <time>2022-03-14T12:57:56+01:00</time>
      </trkpt>
      <trkpt lat="46.18395" lon="-1.20953">
        <ele>3.600586</ele>
        <time>2022-03-14T12:58:01+01:00</time>
      </trkpt>
      <trkpt lat="46.18392" lon="-1.20963">
        <ele>4.2998047</ele>
        <time>2022-03-14T12:58:07+01:00</time>
      </trkpt>
      <trkpt lat="46.18392" lon="-1.20965">
        <ele>4.2998047</ele>
        <time>2022-03-14T12:58:10+01:00</time>
      </trkpt>
      <trkpt lat="46.18397" lon="-1.2096">
        <ele>3.600586</ele>
        <time>2022-03-14T12:58:15+01:00</time>
      </trkpt>
      <trkpt lat="46.18399" lon="-1.2095">
        <ele>3.7001953</ele>
        <time>2022-03-14T12:58:19+01:00</time>
      </trkpt>
      <trkpt lat="46.18393" lon="-1.20918">
        <ele>5.100586</ele>
        <time>2022-03-14T12:58:33+01:00</time>
      </trkpt>
      <trkpt lat="46.18387" lon="-1.20905">
        <ele>6.100586</ele>
        <time>2022-03-14T12:58:40+01:00</time>
      </trkpt>
      <trkpt lat="46.18382" lon="-1.209">
        <ele>6.2998047</ele>
        <time>2022-03-14T12:58:44+01:00</time>
      </trkpt>
      <trkpt lat="46.18376" lon="-1.209">
        <ele>7.100586</ele>
        <time>2022-03-14T12:58:48+01:00</time>
      </trkpt>
      <trkpt lat="46.18368" lon="-1.20906">
        <ele>7.2998047</ele>
        <time>2022-03-14T12:58:53+01:00</time>
      </trkpt>
      <trkpt lat="46.18365" lon="-1.20904">
        <ele>7.2998047</ele>
        <time>2022-03-14T12:58:56+01:00</time>
      </trkpt>
      <trkpt lat="46.18361" lon="-1.20889">
        <ele>7.7001953</ele>
        <time>2022-03-14T12:59:03+01:00</time>
      </trkpt>
      <trkpt lat="46.18361" lon="-1.20877">
        <ele>7.9003906</ele>
        <time>2022-03-14T12:59:08+01:00</time>
      </trkpt>
      <trkpt lat="46.18363" lon="-1.20867">
        <ele>8</ele>
        <time>2022-03-14T12:59:12+01:00</time>
      </trkpt>
      <trkpt lat="46.18374" lon="-1.20841">
        <ele>8.200195</ele>
        <time>2022-03-14T12:59:25+01:00</time>
      </trkpt>
      <trkpt lat="46.18381" lon="-1.20795">
        <ele>7.2998047</ele>
        <time>2022-03-14T12:59:47+01:00</time>
      </trkpt>
      <trkpt lat="46.18393" lon="-1.20743">
        <ele>6.2998047</ele>
        <time>2022-03-14T13:00:13+01:00</time>
      </trkpt>
      <trkpt lat="46.18414" lon="-1.20693">
        <ele>5.5</ele>
        <time>2022-03-14T13:00:39+01:00</time>
      </trkpt>
      <trkpt lat="46.18435" lon="-1.20649">
        <ele>5.2001953</ele>
        <time>2022-03-14T13:01:03+01:00</time>
      </trkpt>
      <trkpt lat="46.18462" lon="-1.20606">
        <ele>5.2001953</ele>
        <time>2022-03-14T13:01:30+01:00</time>
      </trkpt>
      <trkpt lat="46.18478" lon="-1.20588">
        <ele>4.100586</ele>
        <time>2022-03-14T13:01:45+01:00</time>
      </trkpt>
      <trkpt lat="46.18505" lon="-1.20557">
        <ele>3.7998047</ele>
        <time>2022-03-14T13:02:07+01:00</time>
      </trkpt>
      <trkpt lat="46.18514" lon="-1.20539">
        <ele>3.9003906</ele>
        <time>2022-03-14T13:02:18+01:00</time>
      </trkpt>
      <trkpt lat="46.18541" lon="-1.20493">
        <ele>4.2998047</ele>
        <time>2022-03-14T13:02:47+01:00</time>
      </trkpt>
      <trkpt lat="46.1855" lon="-1.20485">
        <ele>3.9003906</ele>
        <time>2022-03-14T13:02:53+01:00</time>
      </trkpt>
      <trkpt lat="46.18569" lon="-1.20476">
        <ele>3.4003906</ele>
        <time>2022-03-14T13:03:07+01:00</time>
      </trkpt>
      <trkpt lat="46.18582" lon="-1.20468">
        <ele>3</ele>
        <time>2022-03-14T13:03:17+01:00</time>
      </trkpt>
      <trkpt lat="46.1859" lon="-1.2046">
        <ele>2.7001953</ele>
        <time>2022-03-14T13:03:24+01:00</time>
      </trkpt>
      <trkpt lat="46.18598" lon="-1.20447">
        <ele>2.600586</ele>
        <time>2022-03-14T13:03:33+01:00</time>
      </trkpt>
      <trkpt lat="46.18624" lon="-1.20429">
        <ele>2.2998047</ele>
        <time>2022-03-14T13:03:53+01:00</time>
      </trkpt>
      <trkpt lat="46.18654" lon="-1.20401">
        <ele>2</ele>
        <time>2022-03-14T13:04:16+01:00</time>
      </trkpt>
      <trkpt lat="46.18675" lon="-1.20382">
        <ele>1.9003906</ele>
        <time>2022-03-14T13:04:32+01:00</time>
      </trkpt>
      <trkpt lat="46.18698" lon="-1.20358">
        <ele>1.7998047</ele>
        <time>2022-03-14T13:04:51+01:00</time>
      </trkpt>
      <trkpt lat="46.18713" lon="-1.20349">
        <ele>1.5</ele>
        <time>2022-03-14T13:05:02+01:00</time>
      </trkpt>
      <trkpt lat="46.18727" lon="-1.20348">
        <ele>1</ele>
        <time>2022-03-14T13:05:11+01:00</time>
      </trkpt>
      <trkpt lat="46.18733" lon="-1.20344">
        <ele>0.7998047</ele>
        <time>2022-03-14T13:05:16+01:00</time>
      </trkpt>
      <trkpt lat="46.18759" lon="-1.20315">
        <ele>0.5</ele>
        <time>2022-03-14T13:05:40+01:00</time>
      </trkpt>
      <trkpt lat="46.1877" lon="-1.20307">
        <ele>0.40039062</ele>
        <time>2022-03-14T13:05:51+01:00</time>
      </trkpt>
      <trkpt lat="46.18751" lon="-1.20327">
        <ele>0.60058594</ele>
        <time>2022-03-14T13:06:06+01:00</time>
      </trkpt>
      <trkpt lat="46.18726" lon="-1.20351">
        <ele>1</ele>
        <time>2022-03-14T13:06:26+01:00</time>
      </trkpt>
      <trkpt lat="46.18706" lon="-1.20352">
        <ele>1.6005859</ele>
        <time>2022-03-14T13:06:39+01:00</time>
      </trkpt>
      <trkpt lat="46.18693" lon="-1.2036">
        <ele>1.9003906</ele>
        <time>2022-03-14T13:06:47+01:00</time>
      </trkpt>
      <trkpt lat="46.18657" lon="-1.20395">
        <ele>2.100586</ele>
        <time>2022-03-14T13:07:15+01:00</time>
      </trkpt>
      <trkpt lat="46.18646" lon="-1.20408">
        <ele>1.9003906</ele>
        <time>2022-03-14T13:07:25+01:00</time>
      </trkpt>
      <trkpt lat="46.18634" lon="-1.20418">
        <ele>2.100586</ele>
        <time>2022-03-14T13:07:35+01:00</time>
      </trkpt>
      <trkpt lat="46.18627" lon="-1.20422">
        <ele>2.100586</ele>
        <time>2022-03-14T13:07:41+01:00</time>
      </trkpt>
      <trkpt lat="46.18614" lon="-1.20439">
        <ele>2.100586</ele>
        <time>2022-03-14T13:07:53+01:00</time>
      </trkpt>
      <trkpt lat="46.18607" lon="-1.20446">
        <ele>2.100586</ele>
        <time>2022-03-14T13:07:58+01:00</time>
      </trkpt>
      <trkpt lat="46.18591" lon="-1.20458">
        <ele>2.7001953</ele>
        <time>2022-03-14T13:08:10+01:00</time>
      </trkpt>
      <trkpt lat="46.1857" lon="-1.2048">
        <ele>3.4003906</ele>
        <time>2022-03-14T13:08:28+01:00</time>
      </trkpt>
      <trkpt lat="46.18545" lon="-1.20496">
        <ele>4</ele>
        <time>2022-03-14T13:08:46+01:00</time>
      </trkpt>
      <trkpt lat="46.18539" lon="-1.20502">
        <ele>4.100586</ele>
        <time>2022-03-14T13:08:51+01:00</time>
      </trkpt>
      <trkpt lat="46.18518" lon="-1.20531">
        <ele>4.2001953</ele>
        <time>2022-03-14T13:09:10+01:00</time>
      </trkpt>
      <trkpt lat="46.18508" lon="-1.2055">
        <ele>3.600586</ele>
        <time>2022-03-14T13:09:21+01:00</time>
      </trkpt>
      <trkpt lat="46.18494" lon="-1.20568">
        <ele>4</ele>
        <time>2022-03-14T13:09:34+01:00</time>
      </trkpt>
      <trkpt lat="46.18466" lon="-1.20596">
        <ele>4.7001953</ele>
        <time>2022-03-14T13:09:57+01:00</time>
      </trkpt>
      <trkpt lat="46.18447" lon="-1.20621">
        <ele>5.5</ele>
        <time>2022-03-14T13:10:14+01:00</time>
      </trkpt>
      <trkpt lat="46.1844" lon="-1.20636">
        <ele>5.4003906</ele>
        <time>2022-03-14T13:10:22+01:00</time>
      </trkpt>
      <trkpt lat="46.18422" lon="-1.20665">
        <ele>5.9003906</ele>
        <time>2022-03-14T13:10:40+01:00</time>
      </trkpt>
      <trkpt lat="46.18409" lon="-1.20689">
        <ele>5.7998047</ele>
        <time>2022-03-14T13:10:54+01:00</time>
      </trkpt>
      <trkpt lat="46.1839" lon="-1.20748">
        <ele>6.2998047</ele>
        <time>2022-03-14T13:11:24+01:00</time>
      </trkpt>
      <trkpt lat="46.18383" lon="-1.20784">
        <ele>6.4003906</ele>
        <time>2022-03-14T13:11:41+01:00</time>
      </trkpt>
      <trkpt lat="46.18377" lon="-1.20822">
        <ele>7.9003906</ele>
        <time>2022-03-14T13:11:57+01:00</time>
      </trkpt>
      <trkpt lat="46.18375" lon="-1.20843">
        <ele>8.200195</ele>
        <time>2022-03-14T13:12:07+01:00</time>
      </trkpt>
      <trkpt lat="46.1837" lon="-1.20865">
        <ele>7.9003906</ele>
        <time>2022-03-14T13:12:18+01:00</time>
      </trkpt>
      <trkpt lat="46.18361" lon="-1.20889">
        <ele>7.7001953</ele>
        <time>2022-03-14T13:12:31+01:00</time>
      </trkpt>
      <trkpt lat="46.18362" lon="-1.20899">
        <ele>7.600586</ele>
        <time>2022-03-14T13:12:36+01:00</time>
      </trkpt>
      <trkpt lat="46.18366" lon="-1.20907">
        <ele>7.2998047</ele>
        <time>2022-03-14T13:12:40+01:00</time>
      </trkpt>
      <trkpt lat="46.18369" lon="-1.20908">
        <ele>7.2998047</ele>
        <time>2022-03-14T13:12:43+01:00</time>
      </trkpt>
      <trkpt lat="46.18381" lon="-1.20903">
        <ele>6.100586</ele>
        <time>2022-03-14T13:12:50+01:00</time>
      </trkpt>
      <trkpt lat="46.18387" lon="-1.20906">
        <ele>6.100586</ele>
        <time>2022-03-14T13:12:54+01:00</time>
      </trkpt>
      <trkpt lat="46.18391" lon="-1.2091">
        <ele>5.2001953</ele>
        <time>2022-03-14T13:12:57+01:00</time>
      </trkpt>
      <trkpt lat="46.18392" lon="-1.20913">
        <ele>5.100586</ele>
        <time>2022-03-14T13:12:59+01:00</time>
      </trkpt>
      <trkpt lat="46.18392" lon="-1.20934">
        <ele>4.7998047</ele>
        <time>2022-03-14T13:13:09+01:00</time>
      </trkpt>
      <trkpt lat="46.18394" lon="-1.20952">
        <ele>3.7001953</ele>
        <time>2022-03-14T13:13:18+01:00</time>
      </trkpt>
      <trkpt lat="46.18393" lon="-1.2096">
        <ele>4.5</ele>
        <time>2022-03-14T13:13:22+01:00</time>
      </trkpt>
      <trkpt lat="46.18386" lon="-1.20976">
        <ele>5.100586</ele>
        <time>2022-03-14T13:13:31+01:00</time>
      </trkpt>
      <trkpt lat="46.18382" lon="-1.21004">
        <ele>4.600586</ele>
        <time>2022-03-14T13:13:45+01:00</time>
      </trkpt>
      <trkpt lat="46.1837" lon="-1.21024">
        <ele>5.7001953</ele>
        <time>2022-03-14T13:13:56+01:00</time>
      </trkpt>
      <trkpt lat="46.18361" lon="-1.21064">
        <ele>5.7001953</ele>
        <time>2022-03-14T13:14:16+01:00</time>
      </trkpt>
      <trkpt lat="46.18352" lon="-1.21135">
        <ele>6.7001953</ele>
        <time>2022-03-14T13:14:51+01:00</time>
      </trkpt>
      <trkpt lat="46.18353" lon="-1.2117">
        <ele>7.100586</ele>
        <time>2022-03-14T13:15:08+01:00</time>
      </trkpt>
      <trkpt lat="46.18349" lon="-1.21207">
        <ele>8.299805</ele>
        <time>2022-03-14T13:15:27+01:00</time>
      </trkpt>
      <trkpt lat="46.1835" lon="-1.21229">
        <ele>6.5</ele>
        <time>2022-03-14T13:15:39+01:00</time>
      </trkpt>
      <trkpt lat="46.18342" lon="-1.21256">
        <ele>5.100586</ele>
        <time>2022-03-14T13:15:52+01:00</time>
      </trkpt>
      <trkpt lat="46.1834" lon="-1.21276">
        <ele>4.5</ele>
        <time>2022-03-14T13:16:01+01:00</time>
      </trkpt>
      <trkpt lat="46.1834" lon="-1.21291">
        <ele>4.100586</ele>
        <time>2022-03-14T13:16:08+01:00</time>
      </trkpt>
      <trkpt lat="46.18331" lon="-1.21338">
        <ele>5</ele>
        <time>2022-03-14T13:16:31+01:00</time>
      </trkpt>
      <trkpt lat="46.18323" lon="-1.2136">
        <ele>5.4003906</ele>
        <time>2022-03-14T13:16:43+01:00</time>
      </trkpt>
      <trkpt lat="46.18307" lon="-1.21378">
        <ele>7.5</ele>
        <time>2022-03-14T13:16:58+01:00</time>
      </trkpt>
      <trkpt lat="46.18298" lon="-1.21397">
        <ele>7.7998047</ele>
        <time>2022-03-14T13:17:09+01:00</time>
      </trkpt>
      <trkpt lat="46.18296" lon="-1.21422">
        <ele>8</ele>
        <time>2022-03-14T13:17:20+01:00</time>
      </trkpt>
      <trkpt lat="46.18292" lon="-1.21442">
        <ele>8</ele>
        <time>2022-03-14T13:17:29+01:00</time>
      </trkpt>
      <trkpt lat="46.18272" lon="-1.2149">
        <ele>8.400391</ele>
        <time>2022-03-14T13:17:57+01:00</time>
      </trkpt>
      <trkpt lat="46.1826" lon="-1.21502">
        <ele>8.900391</ele>
        <time>2022-03-14T13:18:07+01:00</time>
      </trkpt>
      <trkpt lat="46.18246" lon="-1.21522">
        <ele>9.400391</ele>
        <time>2022-03-14T13:18:22+01:00</time>
      </trkpt>
      <trkpt lat="46.18241" lon="-1.21535">
        <ele>10.200195</ele>
        <time>2022-03-14T13:18:29+01:00</time>
      </trkpt>
      <trkpt lat="46.18231" lon="-1.21544">
        <ele>10.600586</ele>
        <time>2022-03-14T13:18:37+01:00</time>
      </trkpt>
      <trkpt lat="46.18224" lon="-1.21562">
        <ele>10.5</ele>
        <time>2022-03-14T13:18:47+01:00</time>
      </trkpt>
      <trkpt lat="46.18206" lon="-1.2159">
        <ele>10</ele>
        <time>2022-03-14T13:19:05+01:00</time>
      </trkpt>
      <trkpt lat="46.18201" lon="-1.21595">
        <ele>10.100586</ele>
        <time>2022-03-14T13:19:09+01:00</time>
      </trkpt>
      <trkpt lat="46.18194" lon="-1.21601">
        <ele>9.900391</ele>
        <time>2022-03-14T13:19:15+01:00</time>
      </trkpt>
      <trkpt lat="46.18176" lon="-1.2161">
        <ele>10.400391</ele>
        <time>2022-03-14T13:19:28+01:00</time>
      </trkpt>
      <trkpt lat="46.18158" lon="-1.21623">
        <ele>10.600586</ele>
        <time>2022-03-14T13:19:41+01:00</time>
      </trkpt>
      <trkpt lat="46.18151" lon="-1.21625">
        <ele>10.799805</ele>
        <time>2022-03-14T13:19:46+01:00</time>
      </trkpt>
      <trkpt lat="46.18141" lon="-1.21625">
        <ele>11.100586</ele>
        <time>2022-03-14T13:19:53+01:00</time>
      </trkpt>
      <trkpt lat="46.18131" lon="-1.2163">
        <ele>11.299805</ele>
        <time>2022-03-14T13:20:00+01:00</time>
      </trkpt>
      <trkpt lat="46.18101" lon="-1.21659">
        <ele>11.5</ele>
        <time>2022-03-14T13:20:24+01:00</time>
      </trkpt>
      <trkpt lat="46.18086" lon="-1.21672">
        <ele>11.600586</ele>
        <time>2022-03-14T13:20:36+01:00</time>
      </trkpt>
      <trkpt lat="46.18054" lon="-1.21693">
        <ele>13.400391</ele>
        <time>2022-03-14T13:21:01+01:00</time>
      </trkpt>
      <trkpt lat="46.18048" lon="-1.217">
        <ele>14.5</ele>
        <time>2022-03-14T13:21:06+01:00</time>
      </trkpt>
      <trkpt lat="46.18025" lon="-1.21739">
        <ele>12.400391</ele>
        <time>2022-03-14T13:21:29+01:00</time>
      </trkpt>
      <trkpt lat="46.18018" lon="-1.21756">
        <ele>10.600586</ele>
        <time>2022-03-14T13:21:39+01:00</time>
      </trkpt>
      <trkpt lat="46.18006" lon="-1.21766">
        <ele>11.100586</ele>
        <time>2022-03-14T13:21:48+01:00</time>
      </trkpt>
      <trkpt lat="46.17976" lon="-1.21788">
        <ele>10.600586</ele>
        <time>2022-03-14T13:22:11+01:00</time>
      </trkpt>
      <trkpt lat="46.17957" lon="-1.21796">
        <ele>10.200195</ele>
        <time>2022-03-14T13:22:24+01:00</time>
      </trkpt>
      <trkpt lat="46.17934" lon="-1.2181">
        <ele>9.700195</ele>
        <time>2022-03-14T13:22:42+01:00</time>
      </trkpt>
      <trkpt lat="46.1791" lon="-1.21821">
        <ele>7.7998047</ele>
        <time>2022-03-14T13:22:59+01:00</time>
      </trkpt>
      <trkpt lat="46.1788" lon="-1.21828">
        <ele>7.9003906</ele>
        <time>2022-03-14T13:23:20+01:00</time>
      </trkpt>
      <trkpt lat="46.17868" lon="-1.21828">
        <ele>7.5</ele>
        <time>2022-03-14T13:23:28+01:00</time>
      </trkpt>
      <trkpt lat="46.17834" lon="-1.21841">
        <ele>7.7998047</ele>
        <time>2022-03-14T13:23:51+01:00</time>
      </trkpt>
      <trkpt lat="46.17798" lon="-1.21851">
        <ele>7.7998047</ele>
        <time>2022-03-14T13:24:16+01:00</time>
      </trkpt>
      <trkpt lat="46.17789" lon="-1.21856">
        <ele>7.4003906</ele>
        <time>2022-03-14T13:24:22+01:00</time>
      </trkpt>
      <trkpt lat="46.17774" lon="-1.21871">
        <ele>7.5</ele>
        <time>2022-03-14T13:24:34+01:00</time>
      </trkpt>
      <trkpt lat="46.17764" lon="-1.21877">
        <ele>7.600586</ele>
        <time>2022-03-14T13:24:41+01:00</time>
      </trkpt>
      <trkpt lat="46.17751" lon="-1.21879">
        <ele>7.7001953</ele>
        <time>2022-03-14T13:24:50+01:00</time>
      </trkpt>
      <trkpt lat="46.1772" lon="-1.21878">
        <ele>8.200195</ele>
        <time>2022-03-14T13:25:12+01:00</time>
      </trkpt>
      <trkpt lat="46.17716" lon="-1.21876">
        <ele>8.200195</ele>
        <time>2022-03-14T13:25:15+01:00</time>
      </trkpt>
      <trkpt lat="46.17709" lon="-1.21869">
        <ele>8.299805</ele>
        <time>2022-03-14T13:25:21+01:00</time>
      </trkpt>
      <trkpt lat="46.17702" lon="-1.21854">
        <ele>8.600586</ele>
        <time>2022-03-14T13:25:31+01:00</time>
      </trkpt>
      <trkpt lat="46.17705" lon="-1.21856">
        <ele>8.5</ele>
        <time>2022-03-14T13:25:34+01:00</time>
      </trkpt>
      <trkpt lat="46.17697" lon="-1.21844">
        <ele>8.700195</ele>
        <time>2022-03-14T13:25:43+01:00</time>
      </trkpt>
      <trkpt lat="46.17674" lon="-1.21779">
        <ele>9.700195</ele>
        <time>2022-03-14T13:26:19+01:00</time>
      </trkpt>
      <trkpt lat="46.17671" lon="-1.21775">
        <ele>9.600586</ele>
        <time>2022-03-14T13:26:23+01:00</time>
      </trkpt>
      <trkpt lat="46.17669" lon="-1.21779">
        <ele>9.5</ele>
        <time>2022-03-14T13:26:27+01:00</time>
      </trkpt>
      <trkpt lat="46.17669" lon="-1.21792">
        <ele>9.299805</ele>
        <time>2022-03-14T13:26:32+01:00</time>
      </trkpt>
      <trkpt lat="46.17678" lon="-1.21846">
        <ele>8.100586</ele>
        <time>2022-03-14T13:26:55+01:00</time>
      </trkpt>
      <trkpt lat="46.17675" lon="-1.21864">
        <ele>7.5</ele>
        <time>2022-03-14T13:27:05+01:00</time>
      </trkpt>
      <trkpt lat="46.17662" lon="-1.21887">
        <ele>6.7001953</ele>
        <time>2022-03-14T13:27:20+01:00</time>
      </trkpt>
      <trkpt lat="46.17659" lon="-1.21885">
        <ele>6.5</ele>
        <time>2022-03-14T13:27:23+01:00</time>
      </trkpt>
      <trkpt lat="46.17653" lon="-1.21875">
        <ele>6.7001953</ele>
        <time>2022-03-14T13:27:28+01:00</time>
      </trkpt>
      <trkpt lat="46.1765" lon="-1.21867">
        <ele>6.9003906</ele>
        <time>2022-03-14T13:27:32+01:00</time>
      </trkpt>
      <trkpt lat="46.1765" lon="-1.21861">
        <ele>7.100586</ele>
        <time>2022-03-14T13:27:41+01:00</time>
      </trkpt>
      <trkpt lat="46.17651" lon="-1.21862">
        <ele>7.2001953</ele>
        <time>2022-03-14T13:27:42+01:00</time>
      </trkpt>
      <trkpt lat="46.1765" lon="-1.21861">
        <ele>7.100586</ele>
        <time>2022-03-14T13:27:47+01:00</time>
      </trkpt>
      <trkpt lat="46.17655" lon="-1.2186">
        <ele>7.2001953</ele>
        <time>2022-03-14T13:28:00+01:00</time>
      </trkpt>
      <trkpt lat="46.17653" lon="-1.21862">
        <ele>7.2001953</ele>
        <time>2022-03-14T13:28:05+01:00</time>
      </trkpt>
      <trkpt lat="46.17649" lon="-1.21858">
        <ele>7.100586</ele>
        <time>2022-03-14T13:28:08+01:00</time>
      </trkpt>
      <trkpt lat="46.17643" lon="-1.21841">
        <ele>7.5</ele>
        <time>2022-03-14T13:28:13+01:00</time>
      </trkpt>
    </trkseg>
  </trk>
</gpx>